GMFO/OUD METAR and TAF weather

Enter ICAO airport designator
Station Type Date Time Source
GMFO METAR 2021/09/16 20:30 UTC NOAA

GMFO 162030Z 33003KT 310V060 CAVOK 21/17 Q1019 NOSIG


Station Type Date Time Source
GMFO Decoded METAR 2021/09/16 20:30 UTC NOAA

Oujda, Morocco (GMFO) 34-47N 001-56W 470M
Sep 16, 2021 - 04:30 PM EDT / 2021.09.16 2030 UTC
Wind: from the NNW (330 degrees) at 3 MPH (3 KT) (direction variable):0
Visibility: greater than 7 mile(s):0
Temperature: 69 F (21 C)
Dew Point: 62 F (17 C)
Relative Humidity: 77%
Pressure (altimeter): 30.09 in. Hg (1019 hPa)
ob: GMFO 162030Z 33003KT 310V060 CAVOK 21/17 Q1019 NOSIG
cycle: 20

Station Type Date Time Source
GMFO TAF 2021/09/16 18:21 UTC NOAA

TAF TAF GMFO 161700Z 1618/1724 32014KT 9999 FEW046
BECMG 1620/1624 24006KT
TEMPO 1712/1718 34017KT CAVOK

Example: see airport list